Time;durP1;ratioP1;P1;durP2;ratioP2;P2;SDS_P1;SDS_P2;PMS_P1;PMS_P2;Temp;Humidity;BMP_temperature;BMP_pressure;BME280_temperature;BME280_humidity;BME280_pressure;Samples;Min_cycle;Max_cycle;Signal;HPM_P1;HPM_P2
2023/04/08 00:01:43;;;;;;;6.07;1.88;;;;;;;;;;5045964;28;20033;-77
2023/04/08 00:04:08;;;;;;;3.72;1.70;;;;;;;;;;5052487;28;20118;-78
2023/04/08 00:06:34;;;;;;;3.90;1.70;;;;;;;;;;5052201;28;20471;-78
2023/04/08 00:09:13;;;;;;;9.63;2.00;;;;;;;;;;5046099;28;20025;-78
2023/04/08 00:11:46;;;;;;;2.38;1.30;;;;;;;;;;5043199;28;20488;-78
2023/04/08 00:14:25;;;;;;;4.68;1.92;;;;;;;;;;5053052;28;20037;-78
2023/04/08 00:16:50;;;;;;;3.53;1.73;;;;;;;;;;5046509;28;20044;-78
2023/04/08 00:19:15;;;;;;;4.40;2.15;;;;;;;;;;5050657;28;20049;-78
2023/04/08 00:21:54;;;;;;;3.70;1.60;;;;;;;;;;5047284;28;20463;-78
2023/04/08 00:24:19;;;;;;;3.22;1.67;;;;;;;;;;5042102;28;20094;-77
2023/04/08 00:26:44;;;;;;;4.70;2.20;;;;;;;;;;5047121;28;20033;-78
2023/04/08 00:29:23;;;;;;;4.85;1.77;;;;;;;;;;5041735;28;20036;-78
2023/04/08 00:31:48;;;;;;;7.03;1.60;;;;;;;;;;5046014;28;20099;-78
2023/04/08 00:34:14;;;;;;;4.15;1.75;;;;;;;;;;5047661;28;20032;-78
2023/04/08 00:36:52;;;;;;;9.18;1.85;;;;;;;;;;5050531;28;20076;-78
2023/04/08 00:39:17;;;;;;;4.35;1.52;;;;;;;;;;5047099;28;20461;-77
2023/04/08 00:41:42;;;;;;;4.28;2.20;;;;;;;;;;5052849;28;20029;-78
2023/04/08 00:44:21;;;;;;;3.50;1.90;;;;;;;;;;5049636;28;20472;-78
2023/04/08 00:46:47;;;;;;;2.83;1.52;;;;;;;;;;5051019;28;20043;-78
2023/04/08 00:49:12;;;;;;;3.22;1.55;;;;;;;;;;5051851;28;20096;-78
2023/04/08 00:51:51;;;;;;;6.88;2.03;;;;;;;;;;5049090;28;20040;-78
2023/04/08 00:54:16;;;;;;;4.85;1.83;;;;;;;;;;5048535;28;20041;-78
2023/04/08 00:56:42;;;;;;;9.38;1.65;;;;;;;;;;5042579;28;20044;-78
2023/04/08 00:59:22;;;;;;;5.38;1.55;;;;;;;;;;5040898;28;20037;-78
2023/04/08 01:01:56;;;;;;;9.50;2.28;;;;;;;;;;5049771;28;20064;-78
2023/04/08 01:04:49;;;;;;;15.02;1.85;;;;;;;;;;5047933;28;20032;-77
2023/04/08 01:07:19;;;;;;;5.22;1.75;;;;;;;;;;5051168;28;20041;-78
2023/04/08 01:10:02;;;;;;;6.95;1.98;;;;;;;;;;5049882;28;20026;-78
2023/04/08 01:12:29;;;;;;;2.92;1.70;;;;;;;;;;5046997;28;20386;-77
2023/04/08 01:15:12;;;;;;;3.50;1.77;;;;;;;;;;5044261;28;20507;-78
2023/04/08 01:17:39;;;;;;;4.97;1.50;;;;;;;;;;5043212;28;20047;-78
2023/04/08 01:20:19;;;;;;;5.25;1.80;;;;;;;;;;5050015;28;20060;-77
2023/04/08 01:22:53;;;;;;;2.75;1.58;;;;;;;;;;5049697;28;20496;-78
2023/04/08 01:25:40;;;;;;;3.85;1.75;;;;;;;;;;5053953;28;20029;-78
2023/04/08 01:28:14;;;;;;;3.00;1.60;;;;;;;;;;5050179;28;20192;-78
2023/04/08 01:30:53;;;;;;;4.22;2.03;;;;;;;;;;5055036;28;20052;-78
2023/04/08 01:33:19;;;;;;;7.57;1.58;;;;;;;;;;5051810;28;20059;-78
2023/04/08 01:35:45;;;;;;;2.97;1.45;;;;;;;;;;5050468;28;20041;-78
2023/04/08 01:38:28;;;;;;;2.70;1.55;;;;;;;;;;5048963;28;20475;-78
2023/04/08 01:40:54;;;;;;;2.63;1.50;;;;;;;;;;5054319;28;20041;-78
2023/04/08 01:43:33;;;;;;;4.75;1.73;;;;;;;;;;5054843;28;20059;-78
2023/04/08 01:45:59;;;;;;;3.17;1.88;;;;;;;;;;5049931;28;20047;-77
2023/04/08 01:48:26;;;;;;;8.18;1.83;;;;;;;;;;5037046;28;20374;-77
2023/04/08 01:51:05;;;;;;;3.38;1.58;;;;;;;;;;5050076;28;20045;-78
2023/04/08 01:53:31;;;;;;;4.40;2.05;;;;;;;;;;5049013;28;20049;-78
2023/04/08 01:56:13;;;;;;;2.95;1.23;;;;;;;;;;5054209;28;20033;-78
2023/04/08 01:58:41;;;;;;;2.55;1.48;;;;;;;;;;5044896;28;20061;-78
2023/04/08 02:01:23;;;;;;;4.22;1.48;;;;;;;;;;5048338;28;20032;-77
2023/04/08 02:03:50;;;;;;;5.68;1.90;;;;;;;;;;5050167;28;20037;-77
2023/04/08 02:06:23;;;;;;;8.27;1.58;;;;;;;;;;5047540;28;20037;-78
2023/04/08 02:08:55;;;;;;;3.25;1.60;;;;;;;;;;5052131;28;20037;-78
2023/04/08 02:11:20;;;;;;;3.80;1.73;;;;;;;;;;5055686;28;20113;-78
2023/04/08 02:13:53;;;;;;;4.95;1.60;;;;;;;;;;5049661;28;20115;-78
2023/04/08 02:16:44;;;;;;;3.10;1.40;;;;;;;;;;5055233;28;20036;-78
2023/04/08 02:19:25;;;;;;;6.90;1.38;;;;;;;;;;5051883;28;20053;-78
2023/04/08 02:22:05;;;;;;;3.67;1.42;;;;;;;;;;5052324;28;20116;-78
2023/04/08 02:24:37;;;;;;;2.80;1.80;;;;;;;;;;5047100;28;20053;-77
2023/04/08 02:27:03;;;;;;;4.80;1.50;;;;;;;;;;5045560;28;20037;-78
2023/04/08 02:29:37;;;;;;;4.60;2.17;;;;;;;;;;5043935;28;20396;-77
2023/04/08 02:32:09;;;;;;;;;;;;;;;;;;5048499;28;20086;-78
2023/04/08 02:34:35;;;;;;;2.08;1.23;;;;;;;;;;5046360;28;19916;-77
2023/04/08 02:37:07;;;;;;;3.42;1.50;;;;;;;;;;5041876;28;20031;-78
2023/04/08 02:39:39;;;;;;;2.10;1.25;;;;;;;;;;5043306;28;20493;-77
2023/04/08 02:42:05;;;;;;;1.92;1.17;;;;;;;;;;5051618;28;20112;-78
2023/04/08 02:44:37;;;;;;;4.05;1.95;;;;;;;;;;5037402;28;20118;-77
2023/04/08 02:47:09;;;;;;;4.63;1.40;;;;;;;;;;5053934;28;20080;-78
2023/04/08 02:49:34;;;;;;;6.32;1.95;;;;;;;;;;5052001;28;20033;-78
2023/04/08 02:52:06;;;;;;;6.18;2.30;;;;;;;;;;5048800;28;20752;-78
2023/04/08 02:54:38;;;;;;;2.20;1.20;;;;;;;;;;5053819;28;20041;-77
2023/04/08 02:57:03;;;;;;;6.32;1.48;;;;;;;;;;5048861;28;20120;-78
2023/04/08 02:59:36;;;;;;;2.00;1.30;;;;;;;;;;5054257;28;20111;-77
2023/04/08 03:02:08;;;;;;;2.63;1.38;;;;;;;;;;5044454;28;20803;-78
2023/04/08 03:04:33;;;;;;;2.03;1.13;;;;;;;;;;5054370;28;20499;-78
2023/04/08 03:07:05;;;;;;;6.32;1.50;;;;;;;;;;5045958;28;20096;-77
2023/04/08 03:09:37;;;;;;;8.38;1.70;;;;;;;;;;5043551;28;20041;-77
2023/04/08 03:12:02;;;;;;;2.53;1.08;;;;;;;;;;5044779;28;20044;-77
2023/04/08 03:14:34;;;;;;;5.88;1.70;;;;;;;;;;5046157;28;20024;-78
2023/04/08 03:17:06;;;;;;;2.30;1.38;;;;;;;;;;5054142;28;20060;-78
2023/04/08 03:19:31;;;;;;;3.08;1.92;;;;;;;;;;5051594;28;20404;-77
2023/04/08 03:22:03;;;;;;;7.68;1.88;;;;;;;;;;5045636;28;20043;-77
2023/04/08 03:24:36;;;;;;;3.13;1.65;;;;;;;;;;5052877;28;20055;-78
2023/04/08 03:27:01;;;;;;;2.25;1.08;;;;;;;;;;5051508;28;20053;-77
2023/04/08 03:29:33;;;;;;;2.30;1.05;;;;;;;;;;5051126;28;20116;-77
2023/04/08 03:32:05;;;;;;;6.63;1.73;;;;;;;;;;5047161;28;20083;-78
2023/04/08 03:34:30;;;;;;;4.68;1.33;;;;;;;;;;5040876;28;20486;-77
2023/04/08 03:37:02;;;;;;;3.55;1.38;;;;;;;;;;5051680;28;20036;-78
2023/04/08 03:39:34;;;;;;;2.63;1.58;;;;;;;;;;5044034;28;20126;-78
2023/04/08 03:42:00;;;;;;;4.53;1.60;;;;;;;;;;5052151;28;20110;-77
2023/04/08 03:44:32;;;;;;;3.25;1.50;;;;;;;;;;5052583;28;20064;-77
2023/04/08 03:47:04;;;;;;;3.15;1.48;;;;;;;;;;5041782;28;20425;-77
2023/04/08 03:49:29;;;;;;;7.68;1.75;;;;;;;;;;5043173;28;20114;-77
2023/04/08 03:52:01;;;;;;;3.00;1.30;;;;;;;;;;5049227;28;20087;-77
2023/04/08 03:54:33;;;;;;;5.70;1.75;;;;;;;;;;5050634;28;20051;-77
2023/04/08 03:56:58;;;;;;;2.55;1.08;;;;;;;;;;5052547;28;20555;-77
2023/04/08 03:59:30;;;;;;;2.70;1.58;;;;;;;;;;5050948;28;20131;-77
2023/04/08 04:02:02;;;;;;;2.17;1.02;;;;;;;;;;5049594;28;20041;-78
2023/04/08 04:04:27;;;;;;;2.75;1.30;;;;;;;;;;5047544;28;20032;-77
2023/04/08 04:06:59;;;;;;;4.47;1.27;;;;;;;;;;5052722;28;20020;-77
2023/04/08 04:09:31;;;;;;;2.70;1.25;;;;;;;;;;5045112;28;20468;-77
2023/04/08 04:11:56;;;;;;;6.00;1.20;;;;;;;;;;5052561;28;20397;-78
2023/04/08 04:14:28;;;;;;;1.98;1.00;;;;;;;;;;5050075;28;20033;-77
2023/04/08 04:17:00;;;;;;;6.35;1.35;;;;;;;;;;5052158;28;20447;-78
2023/04/08 04:19:36;;;;;;;2.42;1.27;;;;;;;;;;5050061;28;20127;-77
2023/04/08 04:22:09;;;;;;;4.38;1.73;;;;;;;;;;5047754;28;20082;-77
2023/04/08 04:24:34;;;;;;;2.15;1.20;;;;;;;;;;5053287;28;20423;-77
2023/04/08 04:27:06;;;;;;;2.47;1.30;;;;;;;;;;5050201;28;20083;-77
2023/04/08 04:29:38;;;;;;;1.60;1.00;;;;;;;;;;5051692;28;20044;-77
2023/04/08 04:32:03;;;;;;;6.45;1.30;;;;;;;;;;5050283;28;20038;-77
2023/04/08 04:34:36;;;;;;;2.25;0.93;;;;;;;;;;5051636;28;20081;-77
2023/04/08 04:37:08;;;;;;;2.17;1.23;;;;;;;;;;5041196;28;20053;-77
2023/04/08 04:39:33;;;;;;;5.53;1.33;;;;;;;;;;5051139;28;20094;-77
2023/04/08 04:42:05;;;;;;;4.35;0.98;;;;;;;;;;5049085;28;20457;-77
2023/04/08 04:44:37;;;;;;;1.83;1.00;;;;;;;;;;5043121;28;20044;-77
2023/04/08 04:47:02;;;;;;;1.65;0.88;;;;;;;;;;5044812;28;20041;-78
2023/04/08 04:49:34;;;;;;;6.47;1.20;;;;;;;;;;5050128;28;20388;-77
2023/04/08 04:52:06;;;;;;;1.88;0.88;;;;;;;;;;5050682;28;20167;-77
2023/04/08 04:54:31;;;;;;;1.38;0.88;;;;;;;;;;5039139;28;20124;-77
2023/04/08 04:57:03;;;;;;;2.00;1.13;;;;;;;;;;5051926;28;20118;-77
2023/04/08 04:59:35;;;;;;;2.58;1.08;;;;;;;;;;5049970;28;20116;-77
2023/04/08 05:02:00;;;;;;;5.60;1.55;;;;;;;;;;5054541;28;20043;-78
2023/04/08 05:04:32;;;;;;;2.13;1.10;;;;;;;;;;5055631;28;20463;-77
2023/04/08 05:07:04;;;;;;;7.28;1.05;;;;;;;;;;5044285;28;20065;-77
2023/04/08 05:09:30;;;;;;;6.57;0.68;;;;;;;;;;5055514;28;20037;-77
2023/04/08 05:12:02;;;;;;;4.78;0.90;;;;;;;;;;5056174;28;20213;-77
2023/04/08 05:14:34;;;;;;;1.08;0.75;;;;;;;;;;5044867;28;20048;-77
2023/04/08 05:17:00;;;;;;;1.88;1.00;;;;;;;;;;5053489;28;20380;-77
2023/04/08 05:19:32;;;;;;;5.70;1.50;;;;;;;;;;5048274;28;20054;-77
2023/04/08 05:22:04;;;;;;;2.03;1.20;;;;;;;;;;5048798;28;20436;-77
2023/04/08 05:24:29;;;;;;;4.05;1.20;;;;;;;;;;5053165;28;20086;-77
2023/04/08 05:27:01;;;;;;;1.55;0.90;;;;;;;;;;5053027;28;20033;-77
2023/04/08 05:29:33;;;;;;;1.63;0.88;;;;;;;;;;5050567;28;20514;-77
2023/04/08 05:31:58;;;;;;;1.60;1.10;;;;;;;;;;5051570;28;20512;-77
2023/04/08 05:34:30;;;;;;;1.67;0.95;;;;;;;;;;5052540;28;20037;-77
2023/04/08 05:37:02;;;;;;;2.13;1.13;;;;;;;;;;5055897;28;20098;-77
2023/04/08 05:39:27;;;;;;;1.42;0.93;;;;;;;;;;5053855;28;20033;-77
2023/04/08 05:41:59;;;;;;;2.28;1.10;;;;;;;;;;5052096;28;20033;-77
2023/04/08 05:44:31;;;;;;;2.63;1.17;;;;;;;;;;5054546;28;20049;-77
2023/04/08 05:46:57;;;;;;;2.47;1.05;;;;;;;;;;5052090;28;20124;-77
2023/04/08 05:49:29;;;;;;;5.65;0.90;;;;;;;;;;5054672;28;20147;-77
2023/04/08 05:52:02;;;;;;;2.10;1.00;;;;;;;;;;5048741;28;20045;-77
2023/04/08 05:54:28;;;;;;;2.55;1.30;;;;;;;;;;5055350;28;20562;-77
2023/04/08 05:57:00;;;;;;;2.90;1.42;;;;;;;;;;5047720;28;20057;-77
2023/04/08 05:59:32;;;;;;;4.95;1.42;;;;;;;;;;5048415;28;20041;-77
2023/04/08 06:01:57;;;;;;;3.03;1.20;;;;;;;;;;5051912;28;20126;-77
2023/04/08 06:04:29;;;;;;;5.50;1.30;;;;;;;;;;5053193;28;20087;-77
2023/04/08 06:07:02;;;;;;;8.70;1.25;;;;;;;;;;5051144;28;20554;-77
2023/04/08 06:09:28;;;;;;;2.40;1.02;;;;;;;;;;5048966;28;20563;-77
2023/04/08 06:12:00;;;;;;;2.30;1.10;;;;;;;;;;5052467;28;20124;-77
2023/04/08 06:14:32;;;;;;;3.17;1.35;;;;;;;;;;5052585;28;20044;-77
2023/04/08 06:16:57;;;;;;;6.72;1.40;;;;;;;;;;5051981;28;20037;-78
2023/04/08 06:19:29;;;;;;;5.80;1.10;;;;;;;;;;5053168;28;20091;-77
2023/04/08 06:22:01;;;;;;;2.47;1.10;;;;;;;;;;5041752;28;20040;-78
2023/04/08 06:24:28;;;;;;;3.70;1.48;;;;;;;;;;5050752;28;20452;-78
2023/04/08 06:27:00;;;;;;;262.27;14.25;;;;;;;;;;5054997;28;20545;-78
2023/04/08 06:29:32;;;;;;;310.40;15.82;;;;;;;;;;5049198;28;20045;-79
2023/04/08 06:31:58;;;;;;;298.25;15.55;;;;;;;;;;5049941;28;20067;-79
2023/04/08 06:34:30;;;;;;;1999.90;116.05;;;;;;;;;;5050926;28;20033;-79
2023/04/08 06:37:02;;;;;;;1999.90;118.80;;;;;;;;;;5049995;28;20039;-80
2023/04/08 06:39:28;;;;;;;1615.72;74.80;;;;;;;;;;5053908;28;20064;-79
2023/04/08 06:42:00;;;;;;;731.78;32.63;;;;;;;;;;5051537;28;20052;-79
2023/04/08 06:44:32;;;;;;;837.53;37.90;;;;;;;;;;5053290;28;20079;-79
2023/04/08 06:46:57;;;;;;;23.60;1.95;;;;;;;;;;5052182;28;20050;-79
2023/04/08 06:49:29;;;;;;;68.75;3.83;;;;;;;;;;5053861;28;20066;-79
2023/04/08 06:52:01;;;;;;;4.47;1.05;;;;;;;;;;5052347;28;20393;-79
2023/04/08 06:54:26;;;;;;;2.13;1.02;;;;;;;;;;5052535;28;20045;-78
2023/04/08 06:56:58;;;;;;;4.20;1.17;;;;;;;;;;5052664;28;20052;-79
2023/04/08 06:59:30;;;;;;;3.28;1.00;;;;;;;;;;5044137;28;20495;-80
2023/04/08 07:01:55;;;;;;;2.00;1.00;;;;;;;;;;5039741;28;20116;-79
2023/04/08 07:04:27;;;;;;;2.33;1.05;;;;;;;;;;5048561;28;20112;-80
2023/04/08 07:06:59;;;;;;;2.58;1.08;;;;;;;;;;5047171;28;20111;-79
2023/04/08 07:09:24;;;;;;;4.10;1.13;;;;;;;;;;5047446;28;20114;-80
2023/04/08 07:11:57;;;;;;;4.80;1.30;;;;;;;;;;5050816;28;20453;-79
2023/04/08 07:14:29;;;;;;;2.17;0.93;;;;;;;;;;5028081;28;20030;-80
2023/04/08 07:16:55;;;;;;;2.80;1.23;;;;;;;;;;5045025;28;20142;-79
2023/04/08 07:19:27;;;;;;;3.55;1.20;;;;;;;;;;5046904;28;20041;-80
2023/04/08 07:21:59;;;;;;;1.98;0.98;;;;;;;;;;5051591;28;20044;-79
2023/04/08 07:24:25;;;;;;;2.05;1.10;;;;;;;;;;5038589;28;20080;-79
2023/04/08 07:26:57;;;;;;;1.98;0.98;;;;;;;;;;5039572;28;20049;-79
2023/04/08 07:29:30;;;;;;;2.60;1.05;;;;;;;;;;5044057;28;20078;-80
2023/04/08 07:31:55;;;;;;;3.30;1.38;;;;;;;;;;5044221;28;20045;-79
2023/04/08 07:34:27;;;;;;;4.50;1.33;;;;;;;;;;5046292;28;20095;-78
2023/04/08 07:36:59;;;;;;;3.15;1.20;;;;;;;;;;5049941;28;20116;-80
2023/04/08 07:39:25;;;;;;;2.83;1.50;;;;;;;;;;5045524;28;20045;-80
2023/04/08 07:41:57;;;;;;;4.22;1.13;;;;;;;;;;5048332;28;20035;-80
2023/04/08 07:44:29;;;;;;;3.33;1.30;;;;;;;;;;5053724;28;20043;-80
2023/04/08 07:46:55;;;;;;;4.80;1.60;;;;;;;;;;5041386;28;20083;-80
2023/04/08 07:49:27;;;;;;;6.50;1.65;;;;;;;;;;5036932;28;20037;-80
2023/04/08 07:51:59;;;;;;;2.67;1.40;;;;;;;;;;5033121;28;21023;-80
2023/04/08 07:54:25;;;;;;;5.28;1.60;;;;;;;;;;5053760;28;20057;-80
2023/04/08 07:56:58;;;;;;;2.65;1.30;;;;;;;;;;5047952;28;20098;-80
2023/04/08 07:59:31;;;;;;;3.60;1.50;;;;;;;;;;5046798;28;20044;-80
2023/04/08 08:01:56;;;;;;;5.78;2.00;;;;;;;;;;5050146;28;20174;-80
2023/04/08 08:04:28;;;;;;;5.43;1.75;;;;;;;;;;5045197;28;20472;-80
2023/04/08 08:07:00;;;;;;;3.88;1.63;;;;;;;;;;5044625;28;20469;-79
2023/04/08 08:09:25;;;;;;;11.05;2.08;;;;;;;;;;5048206;28;20459;-80
2023/04/08 08:11:57;;;;;;;5.05;1.85;;;;;;;;;;5049111;28;20056;-80
2023/04/08 08:14:29;;;;;;;7.07;1.92;;;;;;;;;;5047678;28;20388;-81
2023/04/08 08:16:55;;;;;;;6.07;1.85;;;;;;;;;;5046674;28;20057;-80
2023/04/08 08:19:27;;;;;;;6.93;1.80;;;;;;;;;;5046805;28;20292;-81
2023/04/08 08:21:59;;;;;;;12.93;2.38;;;;;;;;;;5044542;28;20126;-80
2023/04/08 08:24:25;;;;;;;7.22;2.20;;;;;;;;;;5049303;28;20120;-81
2023/04/08 08:26:57;;;;;;;5.32;2.20;;;;;;;;;;5049545;28;20447;-81
2023/04/08 08:29:29;;;;;;;4.45;1.95;;;;;;;;;;5049028;28;20060;-81
2023/04/08 08:31:54;;;;;;;5.70;2.25;;;;;;;;;;5041281;28;20087;-81
2023/04/08 08:34:26;;;;;;;6.50;2.63;;;;;;;;;;5044209;28;20434;-83
2023/04/08 08:36:58;;;;;;;5.78;2.60;;;;;;;;;;5046122;28;20094;-82
2023/04/08 08:39:23;;;;;;;3.97;1.88;;;;;;;;;;5048196;28;20497;-82
2023/04/08 08:41:55;;;;;;;3.50;2.10;;;;;;;;;;5043805;28;20120;-83
2023/04/08 08:44:29;;;;;;;7.55;2.40;;;;;;;;;;5049915;28;20037;-83
2023/04/08 08:46:54;;;;;;;4.47;2.10;;;;;;;;;;5031924;28;20048;-80
2023/04/08 08:49:26;;;;;;;4.75;2.42;;;;;;;;;;5041303;28;20037;-80
2023/04/08 08:51:59;;;;;;;4.82;2.10;;;;;;;;;;5051659;28;20041;-82
2023/04/08 08:54:25;;;;;;;;;;;;;;;;;;5051800;28;20040;-82
2023/04/08 08:56:57;;;;;;;7.15;2.13;;;;;;;;;;5048780;28;19916;-83
2023/04/08 08:59:29;;;;;;;4.43;1.85;;;;;;;;;;5050591;28;20533;-82
2023/04/08 09:01:55;;;;;;;3.45;1.60;;;;;;;;;;5051257;28;20391;-85
2023/04/08 09:04:27;;;;;;;3.38;1.70;;;;;;;;;;5050043;28;20120;-84
2023/04/08 09:07:10;;;;;;;3.07;1.53;;;;;;;;;;5039786;28;20060;-83
2023/04/08 09:09:58;;;;;;;5.65;1.50;;;;;;;;;;5051540;28;20325;-85
2023/04/08 09:12:30;;;;;;;4.15;1.50;;;;;;;;;;5029273;28;20044;-78
2023/04/08 09:15:14;;;;;;;4.38;1.40;;;;;;;;;;5037344;28;20045;-79
2023/04/08 09:17:46;;;;;;;5.13;2.13;;;;;;;;;;5037196;28;20431;-85
2023/04/08 09:20:13;;;;;;;3.97;1.13;;;;;;;;;;5048453;28;20132;-85
2023/04/08 09:23:12;;;;;;;4.30;1.27;;;;;;;;;;5049692;28;20036;-84
2023/04/08 09:25:37;;;;;;;3.67;1.58;;;;;;;;;;5049773;28;20037;-83
2023/04/08 09:28:02;;;;;;;3.40;1.70;;;;;;;;;;5040744;28;20041;-83
2023/04/08 09:30:41;;;;;;;4.13;1.50;;;;;;;;;;5046870;28;20071;-81
2023/04/08 09:33:07;;;;;;;4.07;1.65;;;;;;;;;;5051929;28;20397;-84
2023/04/08 09:35:32;;;;;;;3.67;1.48;;;;;;;;;;5052119;28;20021;-84
2023/04/08 09:38:11;;;;;;;6.35;1.55;;;;;;;;;;5047055;28;20108;-83
2023/04/08 09:40:37;;;;;;;3.88;1.60;;;;;;;;;;5039343;28;20040;-84
2023/04/08 09:43:04;;;;;;;4.03;1.70;;;;;;;;;;5040616;28;20033;-84
2023/04/08 09:45:44;;;;;;;3.88;1.60;;;;;;;;;;5047101;28;20465;-84
2023/04/08 09:48:13;;;;;;;7.32;1.60;;;;;;;;;;5051513;28;20540;-84
2023/04/08 09:50:55;;;;;;;4.03;1.42;;;;;;;;;;5054965;28;20029;-83
2023/04/08 09:53:35;;;;;;;3.97;1.70;;;;;;;;;;5056012;28;20094;-83
2023/04/08 09:56:16;;;;;;;3.92;1.50;;;;;;;;;;5041492;28;20465;-83
2023/04/08 09:58:51;;;;;;;3.35;1.80;;;;;;;;;;5054446;28;20566;-82
2023/04/08 10:01:34;;;;;;;3.80;1.42;;;;;;;;;;5055881;28;20132;-82
2023/04/08 10:04:00;;;;;;;4.95;1.67;;;;;;;;;;5055322;28;20048;-82
2023/04/08 10:06:32;;;;;;;3.00;1.40;;;;;;;;;;5047166;28;20033;-83
2023/04/08 10:09:06;;;;;;;4.93;1.65;;;;;;;;;;5037839;28;20045;-82
2023/04/08 10:11:38;;;;;;;3.80;1.55;;;;;;;;;;5054642;28;20384;-83
2023/04/08 10:14:04;;;;;;;5.72;1.80;;;;;;;;;;5054149;28;20075;-82
2023/04/08 10:16:37;;;;;;;3.42;1.50;;;;;;;;;;5055501;28;20033;-83
2023/04/08 10:19:44;;;;;;;5.85;1.90;;;;;;;;;;5041147;28;20043;-79
2023/04/08 10:22:34;;;;;;;3.67;1.88;;;;;;;;;;5051713;28;20049;-82
2023/04/08 10:25:15;;;;;;;5.82;1.90;;;;;;;;;;5065211;28;20071;-82
2023/04/08 10:27:48;;;;;;;3.80;1.55;;;;;;;;;;5047479;28;20048;-82
2023/04/08 10:30:26;;;;;;;8.55;2.17;;;;;;;;;;5041412;28;20515;-82
2023/04/08 10:33:02;;;;;;;3.03;1.60;;;;;;;;;;5055187;28;20115;-81
2023/04/08 10:35:35;;;;;;;3.50;1.58;;;;;;;;;;5045482;28;20044;-80
2023/04/08 10:38:01;;;;;;;;;;;;;;;;;;5054382;28;20039;-80
2023/04/08 10:40:33;;;;;;;3.22;1.60;;;;;;;;;;5054141;28;19908;-80
2023/04/08 10:43:06;;;;;;;5.43;1.60;;;;;;;;;;5054804;28;20122;-79
2023/04/08 10:45:31;;;;;;;3.78;1.48;;;;;;;;;;5049758;28;20043;-80
2023/04/08 10:48:03;;;;;;;3.72;1.52;;;;;;;;;;5054939;28;20465;-80
2023/04/08 10:50:35;;;;;;;4.82;1.70;;;;;;;;;;5054956;28;20087;-79
2023/04/08 10:53:01;;;;;;;3.78;1.80;;;;;;;;;;5048566;28;20044;-78
2023/04/08 10:55:34;;;;;;;6.82;2.03;;;;;;;;;;5054384;28;20048;-79
2023/04/08 10:58:07;;;;;;;4.50;1.67;;;;;;;;;;5053181;28;20048;-79
2023/04/08 11:00:42;;;;;;;7.05;2.17;;;;;;;;;;5053467;28;20033;-79
2023/04/08 11:03:14;;;;;;;5.60;1.70;;;;;;;;;;5050033;28;20087;-79
2023/04/08 11:05:40;;;;;;;8.93;1.67;;;;;;;;;;5052215;28;20098;-79
2023/04/08 11:08:12;;;;;;;3.20;1.45;;;;;;;;;;5054048;28;20040;-79
2023/04/08 11:10:44;;;;;;;4.95;1.65;;;;;;;;;;5046640;28;20128;-79
2023/04/08 11:13:11;;;;;;;4.57;1.67;;;;;;;;;;5051780;28;20538;-79
2023/04/08 11:15:44;;;;;;;5.07;2.03;;;;;;;;;;5045303;28;20029;-78
2023/04/08 11:18:16;;;;;;;5.90;1.63;;;;;;;;;;5051898;28;20052;-79
2023/04/08 11:20:43;;;;;;;4.20;1.50;;;;;;;;;;5049338;28;20049;-79
2023/04/08 11:23:22;;;;;;;4.03;1.70;;;;;;;;;;5051021;28;20090;-79
2023/04/08 11:25:55;;;;;;;5.20;1.70;;;;;;;;;;5049978;28;20103;-79
2023/04/08 11:28:21;;;;;;;3.85;1.60;;;;;;;;;;5045392;28;20096;-79
2023/04/08 11:30:53;;;;;;;4.15;1.60;;;;;;;;;;5049769;28;20124;-79
2023/04/08 11:33:28;;;;;;;5.43;1.80;;;;;;;;;;5045785;28;20044;-79
2023/04/08 11:36:00;;;;;;;7.60;2.15;;;;;;;;;;5053618;28;20037;-79
2023/04/08 11:38:32;;;;;;;4.20;1.73;;;;;;;;;;5051985;28;20048;-79
2023/04/08 11:40:58;;;;;;;7.05;2.25;;;;;;;;;;5053877;28;20068;-78
2023/04/08 11:43:30;;;;;;;3.15;1.58;;;;;;;;;;5035328;28;20037;-79
2023/04/08 11:46:10;;;;;;;5.00;1.77;;;;;;;;;;5050627;28;20090;-79
2023/04/08 11:48:42;;;;;;;5.47;2.00;;;;;;;;;;5047466;28;20059;-79
2023/04/08 11:51:15;;;;;;;5.03;2.15;;;;;;;;;;5049209;28;20388;-78
2023/04/08 11:53:40;;;;;;;3.40;1.73;;;;;;;;;;5045788;28;20063;-78
2023/04/08 11:56:29;;;;;;;5.30;2.00;;;;;;;;;;5048062;28;20079;-78
2023/04/08 11:58:54;;;;;;;7.10;2.15;;;;;;;;;;5049173;28;20038;-79
2023/04/08 12:01:20;;;;;;;7.13;1.77;;;;;;;;;;5051834;28;20488;-78
2023/04/08 12:04:04;;;;;;;3.22;1.88;;;;;;;;;;5045356;28;20033;-79
2023/04/08 12:06:30;;;;;;;;;;;;;;;;;;5039548;28;20492;-80
2023/04/08 12:09:02;;;;;;;4.47;1.77;;;;;;;;;;5050768;28;20015;-79
2023/04/08 12:11:34;;;;;;;6.15;1.80;;;;;;;;;;5052951;28;20048;-79
2023/04/08 12:14:00;;;;;;;5.57;1.98;;;;;;;;;;5045471;28;20033;-78
2023/04/08 12:16:31;;;;;;;6.22;1.88;;;;;;;;;;5041230;28;20112;-79
2023/04/08 12:19:03;;;;;;;8.38;2.20;;;;;;;;;;5050478;28;20432;-79
2023/04/08 12:21:28;;;;;;;4.50;1.75;;;;;;;;;;5050449;28;20141;-79
2023/04/08 12:24:00;;;;;;;2.88;1.50;;;;;;;;;;5052756;28;20053;-78
2023/04/08 12:26:32;;;;;;;3.97;1.70;;;;;;;;;;5051854;28;20484;-79
2023/04/08 12:28:57;;;;;;;7.20;2.25;;;;;;;;;;5041713;28;20130;-79
2023/04/08 12:31:29;;;;;;;8.02;1.75;;;;;;;;;;5039686;28;20473;-79
2023/04/08 12:34:01;;;;;;;3.13;1.90;;;;;;;;;;5047902;28;20036;-79
2023/04/08 12:36:26;;;;;;;5.43;1.98;;;;;;;;;;5046152;28;20124;-77
2023/04/08 12:38:58;;;;;;;4.05;1.63;;;;;;;;;;5041360;28;20120;-79
2023/04/08 12:41:30;;;;;;;3.33;1.70;;;;;;;;;;5050374;28;20088;-78
2023/04/08 12:43:55;;;;;;;6.22;2.30;;;;;;;;;;5038329;28;20120;-79
2023/04/08 12:46:27;;;;;;;6.07;2.25;;;;;;;;;;5049092;28;20104;-78
2023/04/08 12:48:59;;;;;;;6.80;2.38;;;;;;;;;;5045971;28;20043;-78
2023/04/08 12:51:25;;;;;;;5.15;2.03;;;;;;;;;;5049992;28;20118;-78
2023/04/08 12:53:56;;;;;;;4.55;1.95;;;;;;;;;;5046943;28;20076;-78
2023/04/08 12:56:28;;;;;;;5.15;1.83;;;;;;;;;;5050846;28;20115;-78
2023/04/08 12:58:54;;;;;;;6.47;2.10;;;;;;;;;;5047742;28;20041;-79
2023/04/08 13:01:26;;;;;;;4.47;2.05;;;;;;;;;;5050835;28;20040;-79
2023/04/08 13:03:58;;;;;;;5.10;2.13;;;;;;;;;;5049229;28;20037;-79
2023/04/08 13:06:24;;;;;;;3.70;2.03;;;;;;;;;;5045068;28;20154;-79
2023/04/08 13:08:56;;;;;;;5.32;2.17;;;;;;;;;;5052959;28;20104;-79
2023/04/08 13:11:28;;;;;;;7.43;2.80;;;;;;;;;;5049200;28;20037;-79
2023/04/08 13:13:53;;;;;;;6.20;2.42;;;;;;;;;;5042323;28;20068;-79
2023/04/08 13:16:26;;;;;;;3.97;2.13;;;;;;;;;;5052406;28;20106;-79
2023/04/08 13:18:57;;;;;;;5.97;2.45;;;;;;;;;;5049640;28;20126;-79
2023/04/08 13:21:22;;;;;;;4.00;1.80;;;;;;;;;;5051546;28;20457;-79
2023/04/08 13:23:54;;;;;;;7.85;2.10;;;;;;;;;;5056808;28;20146;-79
2023/04/08 13:26:26;;;;;;;5.63;2.20;;;;;;;;;;5055848;28;20366;-79
2023/04/08 13:28:51;;;;;;;3.65;2.00;;;;;;;;;;5056411;28;20084;-79
2023/04/08 13:31:24;;;;;;;5.32;2.08;;;;;;;;;;5056400;28;20060;-79
2023/04/08 13:33:56;;;;;;;7.60;2.45;;;;;;;;;;5052530;28;20593;-79
2023/04/08 13:36:21;;;;;;;4.93;2.40;;;;;;;;;;5056285;28;20045;-79
2023/04/08 13:38:53;;;;;;;4.63;2.28;;;;;;;;;;5052640;28;20090;-78
2023/04/08 13:41:26;;;;;;;5.47;2.20;;;;;;;;;;5045789;28;20543;-79
2023/04/08 13:43:52;;;;;;;5.85;2.17;;;;;;;;;;5055123;28;20040;-79
2023/04/08 13:46:24;;;;;;;6.25;2.05;;;;;;;;;;5055772;28;20063;-79
2023/04/08 13:48:56;;;;;;;4.43;1.95;;;;;;;;;;5044202;28;20397;-79
2023/04/08 13:51:21;;;;;;;6.78;1.90;;;;;;;;;;5053814;28;20035;-79
2023/04/08 13:53:53;;;;;;;6.15;2.08;;;;;;;;;;5055855;28;20041;-79
2023/04/08 13:56:25;;;;;;;6.68;2.13;;;;;;;;;;5049108;28;20069;-79
2023/04/08 13:58:50;;;;;;;6.45;1.98;;;;;;;;;;5055905;28;20090;-79
2023/04/08 14:01:22;;;;;;;4.30;2.30;;;;;;;;;;5055827;28;20054;-79
2023/04/08 14:03:54;;;;;;;3.35;1.95;;;;;;;;;;5046005;28;20037;-79
2023/04/08 14:06:19;;;;;;;5.38;2.00;;;;;;;;;;5055813;28;20037;-79
2023/04/08 14:08:51;;;;;;;5.93;2.55;;;;;;;;;;5047573;28;20037;-79
2023/04/08 14:11:23;;;;;;;3.95;2.50;;;;;;;;;;5054311;28;20052;-79
2023/04/08 14:13:48;;;;;;;7.18;2.40;;;;;;;;;;5053517;28;20048;-79
2023/04/08 14:16:20;;;;;;;4.90;2.22;;;;;;;;;;5051754;28;20037;-79
2023/04/08 14:18:52;;;;;;;5.30;2.30;;;;;;;;;;5055660;28;20489;-79
2023/04/08 14:21:17;;;;;;;7.03;2.88;;;;;;;;;;5042861;28;20136;-79
2023/04/08 14:23:49;;;;;;;8.48;3.47;;;;;;;;;;5046543;28;20115;-79
2023/04/08 14:26:21;;;;;;;6.90;3.15;;;;;;;;;;5049899;28;20036;-78
2023/04/08 14:28:46;;;;;;;4.82;2.90;;;;;;;;;;5052907;28;20098;-79
2023/04/08 14:31:18;;;;;;;4.88;2.38;;;;;;;;;;5044895;28;20041;-78
2023/04/08 14:33:50;;;;;;;4.78;2.65;;;;;;;;;;5054865;28;20044;-79
2023/04/08 14:36:15;;;;;;;7.90;2.67;;;;;;;;;;5053938;28;20091;-79
2023/04/08 14:38:47;;;;;;;7.80;2.65;;;;;;;;;;5049889;28;20032;-80
2023/04/08 14:41:20;;;;;;;5.43;2.70;;;;;;;;;;5051799;28;20098;-79
2023/04/08 14:43:45;;;;;;;6.15;2.30;;;;;;;;;;5046862;28;20037;-79
2023/04/08 14:46:18;;;;;;;4.13;2.40;;;;;;;;;;5050605;28;20130;-79
2023/04/08 14:48:50;;;;;;;4.53;1.98;;;;;;;;;;5045741;28;20056;-79
2023/04/08 14:51:15;;;;;;;4.90;2.15;;;;;;;;;;5054648;28;20044;-79
2023/04/08 14:53:47;;;;;;;5.28;2.55;;;;;;;;;;5048042;28;20030;-79
2023/04/08 14:56:19;;;;;;;5.38;2.40;;;;;;;;;;5045423;28;20040;-78
2023/04/08 14:58:44;;;;;;;6.03;2.45;;;;;;;;;;5052570;28;20122;-79
2023/04/08 15:01:16;;;;;;;7.07;2.33;;;;;;;;;;5053404;28;20091;-79
2023/04/08 15:03:48;;;;;;;4.68;2.17;;;;;;;;;;5049399;28;20033;-79
2023/04/08 15:06:16;;;;;;;5.28;2.20;;;;;;;;;;5049034;28;20044;-79